createdAt,value
2019-03-24T00:02:05.767Z,29.03
2019-03-24T00:04:34.184Z,28.10
2019-03-24T00:07:02.599Z,28.00
2019-03-24T00:09:31.009Z,29.37
2019-03-24T00:11:59.420Z,32.53
2019-03-24T00:14:29.468Z,31.20
2019-03-24T00:16:57.888Z,29.40
2019-03-24T00:19:26.300Z,28.13
2019-03-24T00:21:54.705Z,30.93
2019-03-24T00:24:23.119Z,30.20
2019-03-24T00:26:51.521Z,26.87
2019-03-24T00:29:19.937Z,32.80
2019-03-24T00:31:48.400Z,31.90
2019-03-24T00:34:16.879Z,32.73
2019-03-24T00:36:45.303Z,30.80
2019-03-24T00:39:13.708Z,35.90
2019-03-24T00:41:42.126Z,28.67
2019-03-24T00:44:10.619Z,27.00
2019-03-24T00:46:39.032Z,33.30
2019-03-24T00:49:07.444Z,30.93
2019-03-24T00:51:35.857Z,28.47
2019-03-24T00:54:04.425Z,29.87
2019-03-24T00:56:32.829Z,31.87
2019-03-24T00:59:01.243Z,33.30
2019-03-24T01:01:29.652Z,31.33
2019-03-24T01:03:58.064Z,32.80
2019-03-24T01:06:26.475Z,32.73
2019-03-24T01:08:54.895Z,32.83
2019-03-24T01:11:23.316Z,35.03
2019-03-24T01:13:51.721Z,34.47
2019-03-24T01:16:20.137Z,29.27
2019-03-24T01:18:48.535Z,34.80
2019-03-24T01:21:16.955Z,28.33
2019-03-24T01:23:45.364Z,33.17
2019-03-24T01:26:13.772Z,30.37
2019-03-24T01:28:42.268Z,30.73
2019-03-24T01:31:10.680Z,31.70
2019-03-24T01:33:39.097Z,33.63
2019-03-24T01:36:07.508Z,33.40
2019-03-24T01:38:35.921Z,33.57
2019-03-24T01:41:04.475Z,30.40
2019-03-24T01:43:32.883Z,33.70
2019-03-24T01:46:01.293Z,30.93
2019-03-24T01:48:29.691Z,34.50
2019-03-24T01:50:58.111Z,33.70
2019-03-24T01:53:26.593Z,32.17
2019-03-24T01:55:55.020Z,34.23
2019-03-24T01:58:23.434Z,32.57
2019-03-24T02:00:51.979Z,33.53
2019-03-24T02:03:20.397Z,32.37
2019-03-24T02:05:48.807Z,30.63
2019-03-24T02:08:17.235Z,29.83
2019-03-24T02:10:45.643Z,31.70
2019-03-24T02:13:14.064Z,35.17
2019-03-24T02:15:42.478Z,33.90
2019-03-24T02:18:10.891Z,33.00
2019-03-24T02:20:39.319Z,36.10
2019-03-24T02:23:07.731Z,36.03
2019-03-24T02:25:36.145Z,33.30
2019-03-24T02:28:04.629Z,31.93
2019-03-24T02:30:33.033Z,33.70
2019-03-24T02:33:01.453Z,31.23
2019-03-24T02:35:29.872Z,28.90
2019-03-24T02:37:58.298Z,31.83
2019-03-24T02:40:26.706Z,32.60
2019-03-24T02:42:55.132Z,30.73
2019-03-24T02:45:23.606Z,33.03
2019-03-24T02:47:52.021Z,31.30
2019-03-24T02:50:20.428Z,29.23
2019-03-24T02:52:48.849Z,28.67
2019-03-24T02:55:17.265Z,34.80
2019-03-24T02:57:45.678Z,33.47
2019-03-24T03:00:14.622Z,33.23
2019-03-24T03:02:43.029Z,32.63
2019-03-24T03:05:11.985Z,30.40
2019-03-24T03:07:40.391Z,35.77
2019-03-24T03:10:10.371Z,29.80
2019-03-24T03:12:38.853Z,32.40
2019-03-24T03:15:08.402Z,33.13
2019-03-24T03:17:36.827Z,35.77
2019-03-24T03:20:08.064Z,34.43
2019-03-24T03:22:36.493Z,30.73
2019-03-24T03:25:08.412Z,31.47
2019-03-24T03:27:36.950Z,31.03
2019-03-24T03:30:07.162Z,31.93
2019-03-24T03:32:35.645Z,30.83
2019-03-24T03:35:06.773Z,28.60
2019-03-24T03:37:35.169Z,28.83
2019-03-24T03:40:05.450Z,32.30
2019-03-24T03:42:33.853Z,29.53
2019-03-24T03:45:02.259Z,29.57
2019-03-24T03:47:30.700Z,28.03
2019-03-24T03:49:59.353Z,27.20
2019-03-24T03:52:27.756Z,30.00
2019-03-24T03:54:56.165Z,31.03
2019-03-24T03:57:24.576Z,28.83
2019-03-24T03:59:52.997Z,28.63
2019-03-24T04:02:21.414Z,30.50
2019-03-24T04:04:49.841Z,30.63
2019-03-24T04:07:18.239Z,29.13
2019-03-24T04:09:46.672Z,30.67
2019-03-24T04:12:15.086Z,28.37
2019-03-24T04:14:43.500Z,28.57
2019-03-24T04:17:11.979Z,27.73
2019-03-24T04:19:40.387Z,30.57
2019-03-24T04:22:08.780Z,29.67
2019-03-24T04:24:37.201Z,32.33
2019-03-24T04:27:05.614Z,28.47
2019-03-24T04:29:34.032Z,32.07
2019-03-24T04:32:02.435Z,30.93
2019-03-24T04:34:30.855Z,27.37
2019-03-24T04:36:59.270Z,31.57
2019-03-24T04:39:27.676Z,30.37
2019-03-24T04:41:56.079Z,28.63
2019-03-24T04:44:24.495Z,30.83
2019-03-24T04:46:52.913Z,28.90
2019-03-24T04:49:21.324Z,31.97
2019-03-24T04:51:49.727Z,27.17
2019-03-24T04:54:18.132Z,30.70
2019-03-24T04:56:46.556Z,28.67
2019-03-24T04:59:14.975Z,27.23
2019-03-24T05:01:43.389Z,30.70
2019-03-24T05:04:11.810Z,31.23
2019-03-24T05:06:40.722Z,31.00
2019-03-24T05:09:09.143Z,29.90
2019-03-24T05:11:37.559Z,30.87
2019-03-24T05:14:05.960Z,30.17
2019-03-24T05:16:34.380Z,33.00
2019-03-24T05:19:02.781Z,29.33
2019-03-24T05:21:31.190Z,28.40
2019-03-24T05:23:59.598Z,30.60
2019-03-24T05:26:28.018Z,29.67
2019-03-24T05:28:56.419Z,27.37
2019-03-24T05:31:24.843Z,31.60
2019-03-24T05:33:53.256Z,28.40
2019-03-24T05:36:21.680Z,28.73
2019-03-24T05:38:50.104Z,28.20
2019-03-24T05:41:18.517Z,29.37
2019-03-24T05:43:46.936Z,27.53
2019-03-24T05:46:15.346Z,31.37
2019-03-24T05:48:44.336Z,27.67
2019-03-24T05:51:12.759Z,25.07
2019-03-24T05:53:41.172Z,23.80
2019-03-24T05:56:09.581Z,26.50
2019-03-24T05:58:37.991Z,24.60
2019-03-24T06:01:06.416Z,23.83
2019-03-24T06:03:34.826Z,23.93
2019-03-24T06:06:03.240Z,25.20
2019-03-24T06:08:31.647Z,23.77
2019-03-24T06:11:00.074Z,21.97
2019-03-24T06:13:28.471Z,20.77
2019-03-24T06:15:56.888Z,22.93
2019-03-24T06:18:25.310Z,24.17
2019-03-24T06:20:53.729Z,20.60
2019-03-24T06:23:22.143Z,23.43
2019-03-24T06:25:50.552Z,25.10
2019-03-24T06:28:18.972Z,20.70
2019-03-24T06:30:47.377Z,19.63
2019-03-24T06:33:15.796Z,21.67
2019-03-24T06:35:44.196Z,19.93
2019-03-24T06:38:12.622Z,22.93
2019-03-24T06:40:41.043Z,22.23
2019-03-24T06:43:09.463Z,21.93
2019-03-24T06:45:37.866Z,19.23
2019-03-24T06:48:06.288Z,23.57
2019-03-24T06:50:34.704Z,22.47
2019-03-24T06:53:03.128Z,23.80
2019-03-24T06:55:31.537Z,21.70
2019-03-24T06:57:59.959Z,23.23
2019-03-24T07:00:28.372Z,21.33
2019-03-24T07:02:56.791Z,21.03
2019-03-24T07:05:25.211Z,22.37
2019-03-24T07:07:53.619Z,19.53
2019-03-24T07:10:22.037Z,19.57
2019-03-24T07:12:51.490Z,21.83
2019-03-24T07:15:20.035Z,20.77
2019-03-24T07:17:48.447Z,20.97
2019-03-24T07:20:17.001Z,21.33
2019-03-24T07:22:45.411Z,22.10
2019-03-24T07:25:13.839Z,22.13
2019-03-24T07:27:42.243Z,24.80
2019-03-24T07:30:11.187Z,23.40
2019-03-24T07:32:39.616Z,24.77
2019-03-24T07:35:08.460Z,25.40
2019-03-24T07:37:37.021Z,24.33
2019-03-24T07:40:07.259Z,29.23
2019-03-24T07:42:35.686Z,31.97
2019-03-24T07:45:06.046Z,30.43
2019-03-24T07:47:34.455Z,32.20
2019-03-24T07:50:03.247Z,33.00
2019-03-24T07:52:31.663Z,30.30
2019-03-24T07:55:00.207Z,28.97
2019-03-24T07:57:28.739Z,30.67
2019-03-24T07:59:57.155Z,31.93
2019-03-24T08:02:25.571Z,29.80
2019-03-24T08:04:53.979Z,26.63
2019-03-24T08:07:22.389Z,27.37
2019-03-24T08:09:50.813Z,28.87
2019-03-24T08:12:19.229Z,30.90
2019-03-24T08:14:47.649Z,25.87
2019-03-24T08:17:16.072Z,28.37
2019-03-24T08:19:44.484Z,27.70
2019-03-24T08:22:12.912Z,28.03
2019-03-24T08:24:41.315Z,29.50
2019-03-24T08:27:09.737Z,28.17
2019-03-24T08:29:38.159Z,30.37
2019-03-24T08:32:06.589Z,32.77
2019-03-24T08:34:35.005Z,29.70
2019-03-24T08:37:03.419Z,31.27
2019-03-24T08:39:31.844Z,31.30
2019-03-24T08:42:00.256Z,31.47
2019-03-24T08:44:28.677Z,31.13
2019-03-24T08:46:57.157Z,29.63
2019-03-24T08:49:25.579Z,33.20
2019-03-24T08:51:54.008Z,29.90
2019-03-24T08:54:22.435Z,33.47
2019-03-24T08:56:50.856Z,34.33
2019-03-24T08:59:19.352Z,34.17
2019-03-24T09:01:47.760Z,30.43
2019-03-24T09:04:16.180Z,31.50
2019-03-24T09:06:44.595Z,35.70
2019-03-24T09:09:13.022Z,34.23
2019-03-24T09:11:41.438Z,36.47
2019-03-24T09:14:09.852Z,37.20
2019-03-24T09:16:38.272Z,38.50
2019-03-24T09:19:06.692Z,37.67
2019-03-24T09:21:35.103Z,37.10
2019-03-24T09:24:03.588Z,39.40
2019-03-24T09:26:32.024Z,36.13
2019-03-24T09:29:00.438Z,36.73
2019-03-24T09:31:28.847Z,39.33
2019-03-24T09:33:57.274Z,38.33
2019-03-24T09:36:25.707Z,39.30
2019-03-24T09:38:54.132Z,42.17
2019-03-24T09:41:22.558Z,40.70
2019-03-24T09:43:50.980Z,40.27
2019-03-24T09:46:19.392Z,40.63
2019-03-24T09:48:47.816Z,38.67
2019-03-24T09:51:16.238Z,40.30
2019-03-24T09:53:44.659Z,44.27
2019-03-24T09:56:13.072Z,41.60
2019-03-24T09:58:41.496Z,39.60
2019-03-24T10:01:10.771Z,40.70
2019-03-24T10:03:39.184Z,42.10
2019-03-24T10:06:07.627Z,46.00
2019-03-24T10:08:46.614Z,46.93
2019-03-24T10:11:06.176Z,44.50
2019-03-24T10:13:34.667Z,46.43
2019-03-24T10:16:03.088Z,45.30
2019-03-24T10:18:31.507Z,42.07
2019-03-24T10:20:59.935Z,43.53
2019-03-24T10:23:28.349Z,45.90
2019-03-24T10:25:56.771Z,45.97
2019-03-24T10:28:25.188Z,50.53
2019-03-24T10:30:53.599Z,45.90
2019-03-24T10:33:22.014Z,51.07
2019-03-24T10:35:50.441Z,45.87
2019-03-24T10:38:18.875Z,49.07
2019-03-24T10:40:47.345Z,46.50
2019-03-24T10:43:15.759Z,47.80
2019-03-24T10:45:44.180Z,49.40
2019-03-24T10:48:12.630Z,47.47
2019-03-24T10:50:41.042Z,49.73
2019-03-24T10:53:09.468Z,51.60
2019-03-24T10:55:37.972Z,47.20
2019-03-24T10:58:06.447Z,49.40
2019-03-24T11:00:42.398Z,49.73
2019-03-24T11:03:10.807Z,52.17
2019-03-24T11:05:39.372Z,50.53
2019-03-24T11:08:07.929Z,54.87
2019-03-24T11:10:36.408Z,51.10
2019-03-24T11:13:04.973Z,50.47
2019-03-24T11:15:33.376Z,50.20
2019-03-24T11:18:01.806Z,48.60
2019-03-24T11:20:30.209Z,51.50
2019-03-24T11:22:58.628Z,53.90
2019-03-24T11:25:27.044Z,51.13
2019-03-24T11:27:55.459Z,46.63
2019-03-24T11:30:24.013Z,47.17
2019-03-24T11:32:52.436Z,49.30
2019-03-24T11:35:20.845Z,49.70
2019-03-24T11:37:50.852Z,52.97
2019-03-24T11:40:19.345Z,49.57
2019-03-24T11:42:47.762Z,50.13
2019-03-24T11:45:16.494Z,53.47
2019-03-24T11:47:44.903Z,53.30
2019-03-24T11:50:13.776Z,52.77
2019-03-24T11:52:42.183Z,55.57
2019-03-24T11:55:10.965Z,53.43
2019-03-24T11:57:39.377Z,51.33
2019-03-24T12:00:19.195Z,52.43
2019-03-24T12:02:47.608Z,54.33
2019-03-24T12:05:16.101Z,54.93
2019-03-24T12:07:44.507Z,54.13
2019-03-24T12:10:13.281Z,54.67
2019-03-24T12:12:41.687Z,53.10
2019-03-24T12:15:11.134Z,54.20
2019-03-24T12:17:39.559Z,52.97
2019-03-24T12:20:08.801Z,53.80
2019-03-24T12:22:37.293Z,57.87
2019-03-24T12:25:06.259Z,53.13
2019-03-24T12:27:34.764Z,47.50
2019-03-24T12:30:04.441Z,50.87
2019-03-24T12:32:32.875Z,53.23
2019-03-24T12:35:01.304Z,52.77
2019-03-24T12:37:29.715Z,50.90
2019-03-24T12:39:58.220Z,56.50
2019-03-24T12:42:26.621Z,49.03
2019-03-24T12:44:55.050Z,54.27
2019-03-24T12:47:23.473Z,51.20
2019-03-24T12:49:51.892Z,52.10
2019-03-24T12:52:20.319Z,53.93
2019-03-24T12:54:48.719Z,54.33
2019-03-24T12:57:17.144Z,54.50
2019-03-24T12:59:45.563Z,48.77
2019-03-24T13:02:13.981Z,49.27
2019-03-24T13:04:42.405Z,46.37
2019-03-24T13:07:10.807Z,49.70
2019-03-24T13:09:39.267Z,49.40
2019-03-24T13:12:07.744Z,47.90
2019-03-24T13:14:36.168Z,47.90
2019-03-24T13:17:04.654Z,50.70
2019-03-24T13:19:33.072Z,47.37
2019-03-24T13:22:01.479Z,48.20
2019-03-24T13:24:29.900Z,48.67
2019-03-24T13:26:58.315Z,48.77
2019-03-24T13:29:26.736Z,47.53
2019-03-24T13:31:55.155Z,51.30
2019-03-24T13:34:23.567Z,49.30
2019-03-24T13:36:51.994Z,49.20
2019-03-24T13:39:20.473Z,48.47
2019-03-24T13:41:48.908Z,49.03
2019-03-24T13:44:17.321Z,46.90
2019-03-24T13:46:45.744Z,48.90
2019-03-24T13:49:14.153Z,43.67
2019-03-24T13:51:42.584Z,45.60
2019-03-24T13:54:11.063Z,47.73
2019-03-24T13:56:39.558Z,46.23
2019-03-24T13:59:07.967Z,48.20
2019-03-24T14:01:36.387Z,43.87
2019-03-24T14:04:04.803Z,45.10
2019-03-24T14:06:33.215Z,46.20
2019-03-24T14:09:01.629Z,43.07
2019-03-24T14:11:30.036Z,46.23
2019-03-24T14:13:58.458Z,46.57
2019-03-24T14:16:26.872Z,42.87
2019-03-24T14:18:55.296Z,41.50
2019-03-24T14:21:23.717Z,47.80
2019-03-24T14:23:52.139Z,45.03
2019-03-24T14:26:20.559Z,45.03
2019-03-24T14:28:48.996Z,45.40
2019-03-24T14:31:17.463Z,44.23
2019-03-24T14:33:45.888Z,42.23
2019-03-24T14:36:14.314Z,39.50
2019-03-24T14:38:42.725Z,41.83
2019-03-24T14:41:11.144Z,41.80
2019-03-24T14:43:39.561Z,43.53
2019-03-24T14:46:07.979Z,44.33
2019-03-24T14:48:36.399Z,43.27
2019-03-24T14:51:04.880Z,42.00
2019-03-24T14:53:33.300Z,43.57
2019-03-24T14:56:01.708Z,45.00
2019-03-24T14:58:30.132Z,44.37
2019-03-24T15:00:58.538Z,44.17
2019-03-24T15:03:26.960Z,43.33
2019-03-24T15:05:55.369Z,42.70
2019-03-24T15:08:23.787Z,44.57
2019-03-24T15:10:52.199Z,42.50
2019-03-24T15:13:20.624Z,44.50
2019-03-24T15:15:49.079Z,42.50
2019-03-24T15:18:17.549Z,41.13
2019-03-24T15:20:45.957Z,44.13
2019-03-24T15:23:14.382Z,41.47
2019-03-24T15:25:42.783Z,42.43
2019-03-24T15:28:11.283Z,41.63
2019-03-24T15:30:39.696Z,38.90
2019-03-24T15:33:08.122Z,40.87
2019-03-24T15:35:36.524Z,40.90
2019-03-24T15:38:08.602Z,39.07
2019-03-24T15:40:35.148Z,37.30
2019-03-24T15:43:03.644Z,39.77
2019-03-24T15:45:32.068Z,38.27
2019-03-24T15:48:00.558Z,37.70
2019-03-24T15:50:28.982Z,38.03
2019-03-24T15:52:57.420Z,35.00
2019-03-24T15:55:25.900Z,40.77
2019-03-24T15:57:54.303Z,41.90
2019-03-24T16:00:28.627Z,37.40
2019-03-24T16:02:57.043Z,39.53
2019-03-24T16:05:25.465Z,36.67
2019-03-24T16:07:53.880Z,38.43
2019-03-24T16:10:22.296Z,40.57
2019-03-24T16:12:50.721Z,38.50
2019-03-24T16:15:19.140Z,40.33
2019-03-24T16:17:47.565Z,42.47
2019-03-24T16:20:15.978Z,37.57
2019-03-24T16:22:44.409Z,38.07
2019-03-24T16:25:12.820Z,37.67
2019-03-24T16:27:41.234Z,37.73
2019-03-24T16:30:09.988Z,35.13
2019-03-24T16:32:38.415Z,38.20
2019-03-24T16:35:06.959Z,38.80
2019-03-24T16:37:35.373Z,35.73
2019-03-24T16:40:07.086Z,37.97
2019-03-24T16:42:35.504Z,35.37
2019-03-24T16:45:05.056Z,37.10
2019-03-24T16:47:33.471Z,37.57
2019-03-24T16:50:01.897Z,34.33
2019-03-24T16:52:30.312Z,35.70
2019-03-24T16:54:58.750Z,39.70
2019-03-24T16:57:27.215Z,37.07
2019-03-24T16:59:55.648Z,38.13
2019-03-24T17:02:24.060Z,39.67
2019-03-24T17:04:52.475Z,40.00
2019-03-24T17:07:20.889Z,43.23
2019-03-24T17:09:49.314Z,40.87
2019-03-24T17:12:17.728Z,41.73
2019-03-24T17:14:46.152Z,42.17
2019-03-24T17:17:14.581Z,43.00
2019-03-24T17:19:43.001Z,46.07
2019-03-24T17:22:11.431Z,42.63
2019-03-24T17:24:39.845Z,41.53
2019-03-24T17:27:08.263Z,43.77
2019-03-24T17:29:36.680Z,41.37
2019-03-24T17:32:05.185Z,45.03
2019-03-24T17:34:33.604Z,44.53
2019-03-24T17:37:02.024Z,43.77
2019-03-24T17:39:30.437Z,44.53
2019-03-24T17:41:58.866Z,43.97
2019-03-24T17:44:27.280Z,46.07
2019-03-24T17:46:55.704Z,47.07
2019-03-24T17:49:24.116Z,43.17
2019-03-24T17:52:00.420Z,46.80
2019-03-24T17:54:22.677Z,42.23
2019-03-24T17:56:51.091Z,45.13
2019-03-24T17:59:19.507Z,46.03
2019-03-24T18:01:47.928Z,46.20
2019-03-24T18:04:16.444Z,49.03
2019-03-24T18:06:44.923Z,46.23
2019-03-24T18:09:13.338Z,46.37
2019-03-24T18:11:41.759Z,49.47
2019-03-24T18:14:10.176Z,49.83
2019-03-24T18:16:38.621Z,48.20
2019-03-24T18:19:07.033Z,49.70
2019-03-24T18:21:35.440Z,53.47
2019-03-24T18:24:03.937Z,54.03
2019-03-24T18:26:32.355Z,52.27
2019-03-24T18:29:00.768Z,52.50
2019-03-24T18:31:29.209Z,55.43
2019-03-24T18:33:57.627Z,50.40
2019-03-24T18:36:26.068Z,52.70
2019-03-24T18:38:54.477Z,49.73
2019-03-24T18:41:22.901Z,55.63
2019-03-24T18:43:51.321Z,56.97
2019-03-24T18:46:19.763Z,52.67
2019-03-24T18:48:48.179Z,56.33
2019-03-24T18:51:16.627Z,56.97
2019-03-24T18:53:45.042Z,56.33
2019-03-24T18:56:13.454Z,59.73
2019-03-24T18:58:41.863Z,60.10
2019-03-24T19:01:10.283Z,62.20
2019-03-24T19:03:38.697Z,64.03
2019-03-24T19:06:07.125Z,62.13
2019-03-24T19:08:35.553Z,63.30
2019-03-24T19:11:04.037Z,58.47
2019-03-24T19:13:32.468Z,55.30
2019-03-24T19:16:00.882Z,49.50
2019-03-24T19:18:29.316Z,54.20
2019-03-24T19:20:57.711Z,51.10
2019-03-24T19:23:26.137Z,50.73
2019-03-24T19:25:54.543Z,51.83
2019-03-24T19:28:22.968Z,51.17
2019-03-24T19:30:51.379Z,52.07
2019-03-24T19:33:20.474Z,52.43
2019-03-24T19:35:49.250Z,51.03
2019-03-24T19:38:17.983Z,54.50
2019-03-24T19:40:46.410Z,53.20
2019-03-24T19:43:14.823Z,52.47
2019-03-24T19:45:43.247Z,53.70
2019-03-24T19:48:11.665Z,52.47
2019-03-24T19:50:40.084Z,51.97
2019-03-24T19:53:08.563Z,52.20
2019-03-24T19:55:36.983Z,50.77
2019-03-24T19:58:05.473Z,49.03
2019-03-24T20:00:33.900Z,57.77
2019-03-24T20:03:02.308Z,51.03
2019-03-24T20:05:30.735Z,51.13
2019-03-24T20:07:59.154Z,53.67
2019-03-24T20:10:27.596Z,53.53
2019-03-24T20:12:56.016Z,53.87
2019-03-24T20:15:24.515Z,53.27
2019-03-24T20:17:52.937Z,54.43
2019-03-24T20:20:21.356Z,56.60
2019-03-24T20:22:56.316Z,57.13
2019-03-24T20:25:19.907Z,58.60
2019-03-24T20:27:48.347Z,55.63
2019-03-24T20:30:17.195Z,57.87
2019-03-24T20:32:45.615Z,58.33
2019-03-24T20:35:14.036Z,59.13
2019-03-24T20:37:42.463Z,57.40
2019-03-24T20:40:11.120Z,60.67
2019-03-24T20:42:39.541Z,65.63
2019-03-24T20:45:09.496Z,62.93
2019-03-24T20:47:37.937Z,61.80
2019-03-24T20:50:07.680Z,61.87
2019-03-24T20:52:36.183Z,61.97
2019-03-24T20:55:06.391Z,63.80
2019-03-24T20:57:34.820Z,66.83
2019-03-24T21:00:03.463Z,63.27
2019-03-24T21:02:31.876Z,61.23
2019-03-24T21:05:00.463Z,62.73
2019-03-24T21:07:28.895Z,62.77
2019-03-24T21:09:57.323Z,61.67
2019-03-24T21:12:25.731Z,65.43
2019-03-24T21:14:54.156Z,63.83
2019-03-24T21:17:22.560Z,60.77
2019-03-24T21:19:50.984Z,65.33
2019-03-24T21:22:19.394Z,66.93
2019-03-24T21:24:47.829Z,64.30
2019-03-24T21:27:16.237Z,67.40
2019-03-24T21:29:44.662Z,66.37
2019-03-24T21:32:13.064Z,64.97
2019-03-24T21:34:41.483Z,66.13
2019-03-24T21:37:09.895Z,69.70
2019-03-24T21:39:38.317Z,66.47
2019-03-24T21:42:06.805Z,67.33
2019-03-24T21:44:35.220Z,68.13
2019-03-24T21:47:03.649Z,67.40
2019-03-24T21:49:32.049Z,67.67
2019-03-24T21:52:00.467Z,69.17
2019-03-24T21:54:28.872Z,69.50
2019-03-24T21:56:57.299Z,67.73
2019-03-24T21:59:25.711Z,67.47
2019-03-24T22:01:54.144Z,65.93
2019-03-24T22:04:22.555Z,68.97
2019-03-24T22:06:50.978Z,65.10
2019-03-24T22:09:19.396Z,67.60
2019-03-24T22:11:47.816Z,69.57
2019-03-24T22:14:16.222Z,66.87
2019-03-24T22:16:44.710Z,64.80
2019-03-24T22:19:13.132Z,66.80
2019-03-24T22:21:41.550Z,66.40
2019-03-24T22:24:09.956Z,67.30
2019-03-24T22:26:38.372Z,69.83
2019-03-24T22:29:06.791Z,68.13
2019-03-24T22:31:35.208Z,65.33
2019-03-24T22:34:03.959Z,65.50
2019-03-24T22:36:32.377Z,68.97
2019-03-24T22:39:00.788Z,66.47
2019-03-24T22:41:29.200Z,67.60
2019-03-24T22:43:57.625Z,68.37
2019-03-24T22:46:26.039Z,66.40
2019-03-24T22:48:54.461Z,69.00
2019-03-24T22:51:22.869Z,65.70
2019-03-24T22:53:51.286Z,67.80
2019-03-24T22:56:19.758Z,66.80
2019-03-24T22:58:48.185Z,65.37
2019-03-24T23:01:17.696Z,74.80
2019-03-24T23:03:46.112Z,64.20
2019-03-24T23:06:14.600Z,65.20
2019-03-24T23:08:43.151Z,70.37
2019-03-24T23:11:11.576Z,65.07
2019-03-24T23:13:39.988Z,66.70
2019-03-24T23:16:08.406Z,69.73
2019-03-24T23:18:36.814Z,64.73
2019-03-24T23:21:05.231Z,70.80
2019-03-24T23:23:33.651Z,65.00
2019-03-24T23:26:02.076Z,68.53
2019-03-24T23:28:30.496Z,65.07
2019-03-24T23:30:58.918Z,66.53
2019-03-24T23:33:27.331Z,67.37
2019-03-24T23:35:56.183Z,68.80
2019-03-24T23:38:24.557Z,69.43
2019-03-24T23:40:52.969Z,66.43
2019-03-24T23:43:21.375Z,67.63
2019-03-24T23:45:49.787Z,66.50
2019-03-24T23:48:18.213Z,69.43
2019-03-24T23:50:46.684Z,70.20
2019-03-24T23:53:16.746Z,68.40
2019-03-24T23:55:47.792Z,65.23
2019-03-24T23:58:16.819Z,65.50
